Terminal Aerodrome Forecast
Issued by NWS

Home | Current Version | Previous Version | Text Only | Print | Product List | Glossary On
Versions: 1 2 3 4 5 6 7 8 9 10 11 12 13 14 15 16 17 18 19 20 21 22 23 24 25 26 27 28 29 30
000
FTUS44 KFWD 270800 AAA
TAFGKY
TAF AMD
KGKY 270855Z 2709/2806 34013G23KT 6SM BR OVC005
     FM271000 34015G25KT P6SM OVC014
     FM271400 35017G27KT P6SM OVC025
     FM271600 35017G27KT P6SM SCT030 OVC060
     FM272000 35016KT P6SM VCSH OVC050
      TEMPO 2721/2801 4SM SHRA OVC025
     FM280400 36013KT P6SM SCT080 BKN200=

USA.gov is the U.S. government's official web portal to all federal, state and local government web resources and services.